sensor_id;sensor_type;location;lat;lon;timestamp;pressure;altitude;pressure_sealevel;temperature;humidity
60719;BME280;46567;51.660;5.824;2023-03-26T00:00:32;100640.0;;;10.3;87.0
60719;BME280;46567;51.660;5.824;2023-03-26T00:05:32;100640.0;;;10.3;87.0
60719;BME280;46567;51.660;5.824;2023-03-26T00:10:32;100640.0;;;10.3;87.0
60719;BME280;46567;51.660;5.824;2023-03-26T00:15:35;100640.0;;;10.4;87.0
60719;BME280;46567;51.660;5.824;2023-03-26T00:20:32;100640.0;;;10.4;87.0
60719;BME280;46567;51.660;5.824;2023-03-26T00:25:32;100630.0;;;10.4;87.0
60719;BME280;46567;51.660;5.824;2023-03-26T00:30:33;100630.0;;;10.5;87.0
60719;BME280;46567;51.660;5.824;2023-03-26T00:35:34;100630.0;;;10.5;87.0
60719;BME280;46567;51.660;5.824;2023-03-26T00:40:32;100630.0;;;10.5;87.0
60719;BME280;46567;51.660;5.824;2023-03-26T00:45:32;100620.0;;;10.5;87.0
60719;BME280;46567;51.660;5.824;2023-03-26T00:50:32;100610.0;;;10.5;87.5
60719;BME280;46567;51.660;5.824;2023-03-26T00:55:32;100600.0;;;10.5;87.5
60719;BME280;46567;51.660;5.824;2023-03-26T01:00:33;100600.0;;;10.5;87.5
60719;BME280;46567;51.660;5.824;2023-03-26T01:05:56;100600.0;;;10.5;87.5
60719;BME280;46567;51.660;5.824;2023-03-26T01:10:32;100590.0;;;10.5;87.5
60719;BME280;46567;51.660;5.824;2023-03-26T01:15:32;100600.0;;;10.5;87.0
60719;BME280;46567;51.660;5.824;2023-03-26T01:20:32;100580.0;;;10.4;87.0
60719;BME280;46567;51.660;5.824;2023-03-26T01:25:37;100570.0;;;10.4;87.0
60719;BME280;46567;51.660;5.824;2023-03-26T01:30:40;100560.0;;;10.3;87.0
60719;BME280;46567;51.660;5.824;2023-03-26T01:35:59;100560.0;;;10.2;87.0
60719;BME280;46567;51.660;5.824;2023-03-26T01:40:39;100550.0;;;10.2;87.0
60719;BME280;46567;51.660;5.824;2023-03-26T01:45:37;100540.0;;;10.1;87.5
60719;BME280;46567;51.660;5.824;2023-03-26T01:50:32;100530.0;;;10.1;87.0
60719;BME280;46567;51.660;5.824;2023-03-26T01:55:37;100520.0;;;10.1;87.0
60719;BME280;46567;51.660;5.824;2023-03-26T02:01:01;100520.0;;;10.0;87.5
60719;BME280;46567;51.660;5.824;2023-03-26T02:05:58;100520.0;;;9.9;87.5
60719;BME280;46567;51.660;5.824;2023-03-26T02:10:34;100510.0;;;9.8;87.0
60719;BME280;46567;51.660;5.824;2023-03-26T02:15:32;100510.0;;;9.8;87.5
60719;BME280;46567;51.660;5.824;2023-03-26T02:20:32;100490.0;;;9.7;87.0
60719;BME280;46567;51.660;5.824;2023-03-26T02:25:32;100490.0;;;9.6;87.5
60719;BME280;46567;51.660;5.824;2023-03-26T02:30:32;100490.0;;;9.6;87.5
60719;BME280;46567;51.660;5.824;2023-03-26T02:35:32;100480.0;;;9.5;87.5
60719;BME280;46567;51.660;5.824;2023-03-26T02:40:32;100480.0;;;9.5;87.5
60719;BME280;46567;51.660;5.824;2023-03-26T02:45:32;100470.0;;;9.5;87.5
60719;BME280;46567;51.660;5.824;2023-03-26T02:50:32;100460.0;;;9.4;87.5
60719;BME280;46567;51.660;5.824;2023-03-26T02:55:32;100460.0;;;9.4;88.0
60719;BME280;46567;51.660;5.824;2023-03-26T03:00:32;100450.0;;;9.4;88.0
60719;BME280;46567;51.660;5.824;2023-03-26T03:05:32;100440.0;;;9.3;88.0
60719;BME280;46567;51.660;5.824;2023-03-26T03:10:32;100440.0;;;9.3;88.0
60719;BME280;46567;51.660;5.824;2023-03-26T03:15:32;100430.0;;;9.3;88.0
60719;BME280;46567;51.660;5.824;2023-03-26T03:20:32;100430.0;;;9.3;88.0
60719;BME280;46567;51.660;5.824;2023-03-26T03:25:32;100420.0;;;9.3;88.0
60719;BME280;46567;51.660;5.824;2023-03-26T03:30:32;100410.0;;;9.3;88.0
60719;BME280;46567;51.660;5.824;2023-03-26T03:35:32;100400.0;;;9.3;88.0
60719;BME280;46567;51.660;5.824;2023-03-26T03:40:32;100410.0;;;9.2;88.0
60719;BME280;46567;51.660;5.824;2023-03-26T03:45:32;100400.0;;;9.2;88.0
60719;BME280;46567;51.660;5.824;2023-03-26T03:50:32;100390.0;;;9.2;88.0
60719;BME280;46567;51.660;5.824;2023-03-26T03:55:32;100380.0;;;9.1;88.0
60719;BME280;46567;51.660;5.824;2023-03-26T04:00:32;100380.0;;;9.1;88.0
60719;BME280;46567;51.660;5.824;2023-03-26T04:05:32;100380.0;;;9.1;88.5
60719;BME280;46567;51.660;5.824;2023-03-26T04:10:32;100370.0;;;9.0;88.5
60719;BME280;46567;51.660;5.824;2023-03-26T04:15:32;100370.0;;;9.0;88.5
60719;BME280;46567;51.660;5.824;2023-03-26T04:20:32;100360.0;;;9.0;88.5
60719;BME280;46567;51.660;5.824;2023-03-26T04:25:33;100360.0;;;9.1;88.5
60719;BME280;46567;51.660;5.824;2023-03-26T04:30:33;100340.0;;;9.1;88.5
60719;BME280;46567;51.660;5.824;2023-03-26T04:35:32;100340.0;;;9.0;88.5
60719;BME280;46567;51.660;5.824;2023-03-26T04:40:32;100340.0;;;8.9;89.0
60719;BME280;46567;51.660;5.824;2023-03-26T04:45:32;100320.0;;;8.9;89.0
60719;BME280;46567;51.660;5.824;2023-03-26T04:50:32;100320.0;;;9.0;89.0
60719;BME280;46567;51.660;5.824;2023-03-26T04:55:40;100310.0;;;9.0;89.0
60719;BME280;46567;51.660;5.824;2023-03-26T05:00:32;100300.0;;;9.0;89.0
60719;BME280;46567;51.660;5.824;2023-03-26T05:05:32;100290.0;;;9.0;89.5
60719;BME280;46567;51.660;5.824;2023-03-26T05:10:32;100280.0;;;9.0;90.0
60719;BME280;46567;51.660;5.824;2023-03-26T05:15:32;100270.0;;;9.0;90.0
60719;BME280;46567;51.660;5.824;2023-03-26T05:30:32;100240.0;;;9.1;91.0
60719;BME280;46567;51.660;5.824;2023-03-26T05:35:32;100250.0;;;9.1;91.0
60719;BME280;46567;51.660;5.824;2023-03-26T05:40:32;100240.0;;;9.1;91.0
60719;BME280;46567;51.660;5.824;2023-03-26T05:45:32;100220.0;;;9.1;91.0
60719;BME280;46567;51.660;5.824;2023-03-26T05:55:32;100210.0;;;8.9;91.5
60719;BME280;46567;51.660;5.824;2023-03-26T06:00:32;100210.0;;;8.9;91.5
60719;BME280;46567;51.660;5.824;2023-03-26T06:05:32;100210.0;;;9.0;91.5
60719;BME280;46567;51.660;5.824;2023-03-26T06:15:32;100190.0;;;8.8;92.5
60719;BME280;46567;51.660;5.824;2023-03-26T06:20:45;100190.0;;;9.0;92.5
60719;BME280;46567;51.660;5.824;2023-03-26T06:25:32;100190.0;;;9.1;92.0
60719;BME280;46567;51.660;5.824;2023-03-26T06:30:32;100190.0;;;9.1;92.0
60719;BME280;46567;51.660;5.824;2023-03-26T06:35:32;100180.0;;;9.2;92.0
60719;BME280;46567;51.660;5.824;2023-03-26T06:40:32;100170.0;;;9.1;92.5
60719;BME280;46567;51.660;5.824;2023-03-26T06:45:32;100160.0;;;9.1;92.5
60719;BME280;46567;51.660;5.824;2023-03-26T06:50:32;100170.0;;;9.2;92.5
60719;BME280;46567;51.660;5.824;2023-03-26T06:55:32;100170.0;;;9.2;92.5
60719;BME280;46567;51.660;5.824;2023-03-26T07:00:32;100170.0;;;9.3;92.5
60719;BME280;46567;51.660;5.824;2023-03-26T07:05:32;100160.0;;;9.3;92.5
60719;BME280;46567;51.660;5.824;2023-03-26T07:10:32;100170.0;;;9.3;92.5
60719;BME280;46567;51.660;5.824;2023-03-26T07:15:32;100170.0;;;9.3;92.5
60719;BME280;46567;51.660;5.824;2023-03-26T07:20:32;100170.0;;;9.3;93.0
60719;BME280;46567;51.660;5.824;2023-03-26T07:25:46;100170.0;;;9.2;94.0
60719;BME280;46567;51.660;5.824;2023-03-26T07:30:45;100160.0;;;9.2;94.0
60719;BME280;46567;51.660;5.824;2023-03-26T07:35:52;100160.0;;;9.3;94.0
60719;BME280;46567;51.660;5.824;2023-03-26T07:41:09;100160.0;;;9.4;93.5
60719;BME280;46567;51.660;5.824;2023-03-26T07:45:44;100160.0;;;9.4;93.5
60719;BME280;46567;51.660;5.824;2023-03-26T07:55:32;100150.0;;;9.5;94.0
60719;BME280;46567;51.660;5.824;2023-03-26T08:00:41;100150.0;;;9.5;94.0
60719;BME280;46567;51.660;5.824;2023-03-26T08:11:06;100140.0;;;9.5;94.5
60719;BME280;46567;51.660;5.824;2023-03-26T08:16:18;100130.0;;;9.6;94.5
60719;BME280;46567;51.660;5.824;2023-03-26T08:20:42;100140.0;;;9.7;94.5
60719;BME280;46567;51.660;5.824;2023-03-26T08:26:08;100140.0;;;9.6;95.0
60719;BME280;46567;51.660;5.824;2023-03-26T08:30:32;100130.0;;;9.6;95.0
60719;BME280;46567;51.660;5.824;2023-03-26T08:35:32;100130.0;;;9.8;95.0
60719;BME280;46567;51.660;5.824;2023-03-26T08:40:43;100130.0;;;9.9;94.5
60719;BME280;46567;51.660;5.824;2023-03-26T09:11:01;100110.0;;;10.4;94.0
60719;BME280;46567;51.660;5.824;2023-03-26T09:19:04;100110.0;;;10.5;94.0
60719;BME280;46567;51.660;5.824;2023-03-26T09:26:41;100110.0;;;10.5;94.0
60719;BME280;46567;51.660;5.824;2023-03-26T09:33:54;100110.0;;;10.7;94.0
60719;BME280;46567;51.660;5.824;2023-03-26T09:38:49;100110.0;;;10.7;93.5
60719;BME280;46567;51.660;5.824;2023-03-26T09:43:02;100100.0;;;10.7;93.5
60719;BME280;46567;51.660;5.824;2023-03-26T09:50:12;100090.0;;;10.8;93.5
60719;BME280;46567;51.660;5.824;2023-03-26T10:01:04;100100.0;;;11.0;93.5
60719;BME280;46567;51.660;5.824;2023-03-26T10:06:19;100100.0;;;11.1;93.5
60719;BME280;46567;51.660;5.824;2023-03-26T10:11:55;100090.0;;;11.1;93.0
60719;BME280;46567;51.660;5.824;2023-03-26T10:16:29;100100.0;;;11.1;93.0
60719;BME280;46567;51.660;5.824;2023-03-26T10:22:50;100110.0;;;11.1;92.5
60719;BME280;46567;51.660;5.824;2023-03-26T10:28:48;100090.0;;;11.1;92.5
60719;BME280;46567;51.660;5.824;2023-03-26T10:34:55;100110.0;;;10.9;92.0
60719;BME280;46567;51.660;5.824;2023-03-26T10:39:59;100100.0;;;10.8;92.5
60719;BME280;46567;51.660;5.824;2023-03-26T10:45:49;100100.0;;;10.8;93.0
60719;BME280;46567;51.660;5.824;2023-03-26T10:52:08;100100.0;;;10.9;92.5
60719;BME280;46567;51.660;5.824;2023-03-26T10:55:43;100110.0;;;11.0;92.0
60719;BME280;46567;51.660;5.824;2023-03-26T10:58:27;100100.0;;;11.1;92.0
60719;BME280;46567;51.660;5.824;2023-03-26T10:58:37;100100.0;;;11.1;91.5
60719;BME280;46567;51.660;5.824;2023-03-26T10:58:45;100100.0;;;11.1;91.0
60719;BME280;46567;51.660;5.824;2023-03-26T10:59:15;100110.0;;;11.1;91.5
60719;BME280;46567;51.660;5.824;2023-03-26T10:59:29;100110.0;;;11.2;90.5
60719;BME280;46567;51.660;5.824;2023-03-26T11:00:43;100110.0;;;11.1;89.5
60719;BME280;46567;51.660;5.824;2023-03-26T11:06:10;100110.0;;;11.1;90.0
60719;BME280;46567;51.660;5.824;2023-03-26T11:15:55;100120.0;;;10.7;90.5
60719;BME280;46567;51.660;5.824;2023-03-26T11:20:38;100120.0;;;10.7;91.0
60719;BME280;46567;51.660;5.824;2023-03-26T11:26:24;100130.0;;;10.7;91.5
60719;BME280;46567;51.660;5.824;2023-03-26T11:31:23;100120.0;;;10.7;91.5
60719;BME280;46567;51.660;5.824;2023-03-26T11:35:34;100130.0;;;10.6;92.0
60719;BME280;46567;51.660;5.824;2023-03-26T11:40:35;100140.0;;;10.7;92.0
60719;BME280;46567;51.660;5.824;2023-03-26T11:45:34;100130.0;;;10.6;91.5
60719;BME280;46567;51.660;5.824;2023-03-26T11:50:34;100130.0;;;10.7;91.5
60719;BME280;46567;51.660;5.824;2023-03-26T11:55:32;100140.0;;;10.8;92.0
60719;BME280;46567;51.660;5.824;2023-03-26T12:00:32;100140.0;;;10.7;91.0
60719;BME280;46567;51.660;5.824;2023-03-26T12:05:45;100150.0;;;10.9;91.0
60719;BME280;46567;51.660;5.824;2023-03-26T12:10:35;100140.0;;;10.9;91.0
60719;BME280;46567;51.660;5.824;2023-03-26T12:15:32;100150.0;;;10.9;92.0
60719;BME280;46567;51.660;5.824;2023-03-26T12:20:35;100150.0;;;10.9;91.5
60719;BME280;46567;51.660;5.824;2023-03-26T12:25:34;100150.0;;;11.0;90.5
60719;BME280;46567;51.660;5.824;2023-03-26T12:30:34;100150.0;;;11.0;91.0
60719;BME280;46567;51.660;5.824;2023-03-26T12:35:34;100150.0;;;11.2;90.0
60719;BME280;46567;51.660;5.824;2023-03-26T12:40:34;100150.0;;;11.1;89.5
60719;BME280;46567;51.660;5.824;2023-03-26T12:45:38;100150.0;;;11.3;90.0
60719;BME280;46567;51.660;5.824;2023-03-26T12:50:58;100160.0;;;11.4;89.0
60719;BME280;46567;51.660;5.824;2023-03-26T12:55:59;100160.0;;;11.5;89.0
60719;BME280;46567;51.660;5.824;2023-03-26T13:01:24;100160.0;;;11.5;89.0
60719;BME280;46567;51.660;5.824;2023-03-26T13:07:11;100170.0;;;11.5;88.0
60719;BME280;46567;51.660;5.824;2023-03-26T13:12:32;100180.0;;;11.3;88.5
60719;BME280;46567;51.660;5.824;2023-03-26T13:17:11;100180.0;;;11.1;88.5
60719;BME280;46567;51.660;5.824;2023-03-26T13:22:09;100190.0;;;10.8;89.0
60719;BME280;46567;51.660;5.824;2023-03-26T13:28:13;100200.0;;;10.7;90.5
60719;BME280;46567;51.660;5.824;2023-03-26T13:33:43;100200.0;;;10.7;91.0
60719;BME280;46567;51.660;5.824;2023-03-26T13:38:28;100200.0;;;10.6;92.0
60719;BME280;46567;51.660;5.824;2023-03-26T13:44:20;100210.0;;;10.5;92.5
60719;BME280;46567;51.660;5.824;2023-03-26T13:48:15;100210.0;;;10.6;93.0
60719;BME280;46567;51.660;5.824;2023-03-26T13:51:52;100200.0;;;10.6;93.5
60719;BME280;46567;51.660;5.824;2023-03-26T13:55:35;100220.0;;;10.6;93.5
60719;BME280;46567;51.660;5.824;2023-03-26T14:00:41;100220.0;;;10.6;93.0
60719;BME280;46567;51.660;5.824;2023-03-26T14:05:37;100220.0;;;10.5;92.0
60719;BME280;46567;51.660;5.824;2023-03-26T14:10:36;100230.0;;;10.3;92.5
60719;BME280;46567;51.660;5.824;2023-03-26T14:15:35;100240.0;;;10.2;93.0
60719;BME280;46567;51.660;5.824;2023-03-26T14:22:44;100250.0;;;10.0;93.0
60719;BME280;46567;51.660;5.824;2023-03-26T14:28:47;100250.0;;;9.8;93.0
60719;BME280;46567;51.660;5.824;2023-03-26T14:35:01;100270.0;;;9.7;93.0
60719;BME280;46567;51.660;5.824;2023-03-26T14:40:29;100270.0;;;9.6;94.0
60719;BME280;46567;51.660;5.824;2023-03-26T14:46:09;100270.0;;;9.6;94.0
60719;BME280;46567;51.660;5.824;2023-03-26T14:50:18;100290.0;;;9.6;93.5
60719;BME280;46567;51.660;5.824;2023-03-26T14:53:57;100290.0;;;9.6;93.0
60719;BME280;46567;51.660;5.824;2023-03-26T14:59:29;100300.0;;;9.8;93.0
60719;BME280;46567;51.660;5.824;2023-03-26T15:08:44;100300.0;;;9.7;93.0
60719;BME280;46567;51.660;5.824;2023-03-26T15:15:20;100310.0;;;9.8;93.5
60719;BME280;46567;51.660;5.824;2023-03-26T15:23:45;100310.0;;;9.9;92.5
60719;BME280;46567;51.660;5.824;2023-03-26T15:39:05;100320.0;;;10.1;92.0
60719;BME280;46567;51.660;5.824;2023-03-26T15:43:20;100330.0;;;10.1;90.5
60719;BME280;46567;51.660;5.824;2023-03-26T15:47:54;100350.0;;;10.1;90.5
60719;BME280;46567;51.660;5.824;2023-03-26T15:52:59;100360.0;;;10.2;89.5
60719;BME280;46567;51.660;5.824;2023-03-26T15:58:05;100360.0;;;10.1;87.0
60719;BME280;46567;51.660;5.824;2023-03-26T16:03:23;100380.0;;;10.0;87.5
60719;BME280;46567;51.660;5.824;2023-03-26T16:08:20;100380.0;;;9.9;85.0
60719;BME280;46567;51.660;5.824;2023-03-26T16:11:10;100390.0;;;9.8;82.5
60719;BME280;46567;51.660;5.824;2023-03-26T16:14:40;100400.0;;;9.7;83.5
60719;BME280;46567;51.660;5.824;2023-03-26T16:15:41;100410.0;;;9.8;83.0
60719;BME280;46567;51.660;5.824;2023-03-26T16:17:25;100410.0;;;9.7;82.0
60719;BME280;46567;51.660;5.824;2023-03-26T16:20:52;100440.0;;;9.7;82.0
60719;BME280;46567;51.660;5.824;2023-03-26T16:24:20;100440.0;;;9.8;82.5
60719;BME280;46567;51.660;5.824;2023-03-26T16:27:35;100450.0;;;9.8;79.5
60719;BME280;46567;51.660;5.824;2023-03-26T16:30:32;100450.0;;;9.6;79.0
60719;BME280;46567;51.660;5.824;2023-03-26T16:36:04;100490.0;;;9.5;77.5
60719;BME280;46567;51.660;5.824;2023-03-26T16:40:34;100480.0;;;9.4;76.5
60719;BME280;46567;51.660;5.824;2023-03-26T16:46:04;100500.0;;;9.3;77.0
60719;BME280;46567;51.660;5.824;2023-03-26T16:50:49;100510.0;;;9.3;79.0
60719;BME280;46567;51.660;5.824;2023-03-26T16:56:01;100520.0;;;9.3;78.5
60719;BME280;46567;51.660;5.824;2023-03-26T17:01:07;100550.0;;;9.2;73.5
60719;BME280;46567;51.660;5.824;2023-03-26T17:05:41;100560.0;;;9.0;72.0
60719;BME280;46567;51.660;5.824;2023-03-26T17:10:46;100570.0;;;8.9;73.5
60719;BME280;46567;51.660;5.824;2023-03-26T17:20:52;100590.0;;;8.8;74.0
60719;BME280;46567;51.660;5.824;2023-03-26T17:25:53;100610.0;;;8.8;74.0
60719;BME280;46567;51.660;5.824;2023-03-26T17:31:23;100620.0;;;8.8;72.5
60719;BME280;46567;51.660;5.824;2023-03-26T17:35:36;100640.0;;;8.7;71.0
60719;BME280;46567;51.660;5.824;2023-03-26T17:40:59;100650.0;;;8.5;70.5
60719;BME280;46567;51.660;5.824;2023-03-26T17:45:40;100660.0;;;8.5;71.5
60719;BME280;46567;51.660;5.824;2023-03-26T17:50:40;100660.0;;;8.4;69.0
60719;BME280;46567;51.660;5.824;2023-03-26T17:55:35;100680.0;;;8.3;68.0
60719;BME280;46567;51.660;5.824;2023-03-26T18:00:39;100690.0;;;8.3;68.5
60719;BME280;46567;51.660;5.824;2023-03-26T18:05:33;100710.0;;;8.3;69.0
60719;BME280;46567;51.660;5.824;2023-03-26T18:12:31;100710.0;;;8.3;69.5
60719;BME280;46567;51.660;5.824;2023-03-26T18:17:02;100730.0;;;8.3;70.5
60719;BME280;46567;51.660;5.824;2023-03-26T18:20:34;100730.0;;;8.3;70.5
60719;BME280;46567;51.660;5.824;2023-03-26T18:25:32;100740.0;;;8.3;70.5
60719;BME280;46567;51.660;5.824;2023-03-26T18:30:43;100760.0;;;8.2;68.0
60719;BME280;46567;51.660;5.824;2023-03-26T18:35:41;100770.0;;;8.1;68.5
60719;BME280;46567;51.660;5.824;2023-03-26T18:40:38;100780.0;;;8.0;67.0
60719;BME280;46567;51.660;5.824;2023-03-26T18:45:37;100780.0;;;8.0;69.0
60719;BME280;46567;51.660;5.824;2023-03-26T18:50:34;100800.0;;;8.1;69.5
60719;BME280;46567;51.660;5.824;2023-03-26T18:55:33;100800.0;;;8.1;69.0
60719;BME280;46567;51.660;5.824;2023-03-26T19:00:32;100820.0;;;8.0;68.0
60719;BME280;46567;51.660;5.824;2023-03-26T19:05:33;100820.0;;;7.9;67.5
60719;BME280;46567;51.660;5.824;2023-03-26T19:10:32;100840.0;;;7.9;67.0
60719;BME280;46567;51.660;5.824;2023-03-26T19:15:34;100850.0;;;7.8;67.5
60719;BME280;46567;51.660;5.824;2023-03-26T19:20:36;100860.0;;;7.8;67.5
60719;BME280;46567;51.660;5.824;2023-03-26T19:25:36;100870.0;;;7.7;66.5
60719;BME280;46567;51.660;5.824;2023-03-26T19:30:38;100880.0;;;7.7;66.5
60719;BME280;46567;51.660;5.824;2023-03-26T19:35:35;100900.0;;;7.6;63.5
60719;BME280;46567;51.660;5.824;2023-03-26T19:40:32;100920.0;;;7.6;65.5
60719;BME280;46567;51.660;5.824;2023-03-26T19:45:33;100930.0;;;7.6;66.0
60719;BME280;46567;51.660;5.824;2023-03-26T19:50:34;100930.0;;;7.5;63.0
60719;BME280;46567;51.660;5.824;2023-03-26T19:55:32;100940.0;;;7.5;65.0
60719;BME280;46567;51.660;5.824;2023-03-26T20:00:32;100950.0;;;7.5;65.5
60719;BME280;46567;51.660;5.824;2023-03-26T20:05:33;100960.0;;;7.5;66.0
60719;BME280;46567;51.660;5.824;2023-03-26T20:10:32;100970.0;;;7.5;66.0
60719;BME280;46567;51.660;5.824;2023-03-26T20:15:34;100980.0;;;7.4;66.0
60719;BME280;46567;51.660;5.824;2023-03-26T20:20:32;101000.0;;;7.4;66.0
60719;BME280;46567;51.660;5.824;2023-03-26T20:25:32;101010.0;;;7.3;65.5
60719;BME280;46567;51.660;5.824;2023-03-26T20:30:32;101010.0;;;7.2;65.5
60719;BME280;46567;51.660;5.824;2023-03-26T20:35:32;101020.0;;;7.1;65.5
60719;BME280;46567;51.660;5.824;2023-03-26T20:40:33;101030.0;;;7.0;66.5
60719;BME280;46567;51.660;5.824;2023-03-26T20:45:32;101050.0;;;6.8;66.5
60719;BME280;46567;51.660;5.824;2023-03-26T20:50:32;101050.0;;;6.7;66.5
60719;BME280;46567;51.660;5.824;2023-03-26T20:55:32;101060.0;;;6.6;67.0
60719;BME280;46567;51.660;5.824;2023-03-26T21:00:32;101060.0;;;6.5;67.5
60719;BME280;46567;51.660;5.824;2023-03-26T21:05:33;101080.0;;;6.4;68.0
60719;BME280;46567;51.660;5.824;2023-03-26T21:10:33;101090.0;;;6.4;68.5
60719;BME280;46567;51.660;5.824;2023-03-26T21:15:33;101090.0;;;6.3;69.0
60719;BME280;46567;51.660;5.824;2023-03-26T21:20:33;101090.0;;;6.2;69.5
60719;BME280;46567;51.660;5.824;2023-03-26T21:25:45;101100.0;;;6.2;70.0
60719;BME280;46567;51.660;5.824;2023-03-26T21:30:33;101120.0;;;6.1;70.5
60719;BME280;46567;51.660;5.824;2023-03-26T21:35:33;101130.0;;;6.0;71.0
60719;BME280;46567;51.660;5.824;2023-03-26T21:40:33;101140.0;;;6.0;71.5
60719;BME280;46567;51.660;5.824;2023-03-26T21:45:32;101160.0;;;6.0;71.5
60719;BME280;46567;51.660;5.824;2023-03-26T21:50:33;101150.0;;;5.9;72.0
60719;BME280;46567;51.660;5.824;2023-03-26T21:55:38;101170.0;;;6.0;72.5
60719;BME280;46567;51.660;5.824;2023-03-26T22:00:49;101180.0;;;6.0;72.5
60719;BME280;46567;51.660;5.824;2023-03-26T22:05:40;101190.0;;;5.9;73.0
60719;BME280;46567;51.660;5.824;2023-03-26T22:10:32;101200.0;;;5.9;73.0
60719;BME280;46567;51.660;5.824;2023-03-26T22:15:32;101210.0;;;5.8;73.0
60719;BME280;46567;51.660;5.824;2023-03-26T22:20:32;101220.0;;;5.8;73.0
60719;BME280;46567;51.660;5.824;2023-03-26T22:25:32;101220.0;;;5.7;73.5
60719;BME280;46567;51.660;5.824;2023-03-26T22:30:33;101230.0;;;5.6;73.5
60719;BME280;46567;51.660;5.824;2023-03-26T22:35:32;101240.0;;;5.5;73.5
60719;BME280;46567;51.660;5.824;2023-03-26T22:40:32;101240.0;;;5.4;73.5
60719;BME280;46567;51.660;5.824;2023-03-26T22:45:32;101260.0;;;5.3;74.0
60719;BME280;46567;51.660;5.824;2023-03-26T22:50:32;101260.0;;;5.2;74.0
60719;BME280;46567;51.660;5.824;2023-03-26T22:55:32;101280.0;;;5.1;74.0
60719;BME280;46567;51.660;5.824;2023-03-26T23:00:32;101290.0;;;5.1;74.5
60719;BME280;46567;51.660;5.824;2023-03-26T23:05:32;101290.0;;;5.0;74.5
60719;BME280;46567;51.660;5.824;2023-03-26T23:10:33;101300.0;;;5.0;74.5
60719;BME280;46567;51.660;5.824;2023-03-26T23:15:32;101320.0;;;5.0;75.0
60719;BME280;46567;51.660;5.824;2023-03-26T23:20:32;101320.0;;;4.9;75.0
60719;BME280;46567;51.660;5.824;2023-03-26T23:25:32;101330.0;;;4.9;75.0
60719;BME280;46567;51.660;5.824;2023-03-26T23:30:33;101340.0;;;4.9;75.0
60719;BME280;46567;51.660;5.824;2023-03-26T23:35:32;101340.0;;;4.8;75.0
60719;BME280;46567;51.660;5.824;2023-03-26T23:40:32;101350.0;;;4.8;75.5
60719;BME280;46567;51.660;5.824;2023-03-26T23:45:32;101360.0;;;4.8;75.5
60719;BME280;46567;51.660;5.824;2023-03-26T23:50:32;101370.0;;;4.8;75.5
60719;BME280;46567;51.660;5.824;2023-03-26T23:55:32;101380.0;;;4.8;75.5
